createdAt,value
2023-05-05T00:02:09.569Z,5.07
2023-05-05T00:04:36.974Z,3.60
2023-05-05T00:07:04.293Z,3.50
2023-05-05T00:09:31.665Z,3.83
2023-05-05T00:11:59.008Z,3.38
2023-05-05T00:14:26.351Z,3.70
2023-05-05T00:16:53.708Z,3.97
2023-05-05T00:19:21.118Z,3.92
2023-05-05T00:21:48.628Z,4.05
2023-05-05T00:24:16.051Z,3.85
2023-05-05T00:26:43.427Z,4.25
2023-05-05T00:29:13.607Z,3.80
2023-05-05T00:31:40.939Z,4.28
2023-05-05T00:34:08.367Z,3.55
2023-05-05T00:36:36.162Z,3.70
2023-05-05T00:39:03.529Z,3.58
2023-05-05T00:41:30.833Z,3.20
2023-05-05T00:43:58.213Z,4.05
2023-05-05T00:46:27.447Z,3.20
2023-05-05T00:48:55.383Z,3.17
2023-05-05T00:51:23.052Z,3.15
2023-05-05T00:53:50.555Z,3.72
2023-05-05T00:56:19.610Z,3.20
2023-05-05T00:58:47.026Z,3.63
2023-05-05T01:01:15.679Z,4.38
2023-05-05T01:03:43.214Z,4.13
2023-05-05T01:06:29.469Z,3.97
2023-05-05T01:09:23.066Z,3.75
2023-05-05T01:12:16.510Z,4.07
2023-05-05T01:15:05.129Z,4.05
2023-05-05T01:17:37.308Z,3.83
2023-05-05T01:20:31.101Z,3.60
2023-05-05T01:23:00.788Z,3.35
2023-05-05T01:25:35.987Z,3.35
2023-05-05T01:28:03.295Z,3.80
2023-05-05T01:30:33.654Z,3.92
2023-05-05T01:33:06.786Z,3.47
2023-05-05T01:35:50.140Z,3.85
2023-05-05T01:38:20.183Z,3.25
2023-05-05T01:40:58.561Z,3.70
2023-05-05T01:43:28.666Z,3.40
2023-05-05T01:45:56.550Z,3.47
2023-05-05T01:48:24.880Z,3.58
2023-05-05T01:50:52.655Z,3.67
2023-05-05T01:53:21.360Z,3.25
2023-05-05T01:55:49.074Z,4.00
2023-05-05T01:58:17.041Z,3.50
2023-05-05T02:00:45.121Z,3.95
2023-05-05T02:03:14.858Z,3.60
2023-05-05T02:05:42.733Z,3.63
2023-05-05T02:08:10.608Z,3.63
2023-05-05T02:10:41.081Z,3.40
2023-05-05T02:13:09.119Z,3.45
2023-05-05T02:15:37.370Z,3.55
2023-05-05T02:18:06.740Z,3.60
2023-05-05T02:20:34.779Z,3.35
2023-05-05T02:23:02.233Z,3.30
2023-05-05T02:25:36.435Z,2.97
2023-05-05T02:28:04.585Z,3.20
2023-05-05T02:30:34.196Z,3.08
2023-05-05T02:33:05.814Z,3.50
2023-05-05T02:35:36.545Z,3.13
2023-05-05T02:38:05.753Z,3.85
2023-05-05T02:40:34.921Z,3.40
2023-05-05T02:43:05.570Z,3.58
2023-05-05T02:45:33.046Z,3.80
2023-05-05T02:48:04.304Z,3.47
2023-05-05T02:50:32.377Z,3.85
2023-05-05T02:53:00.285Z,4.18
2023-05-05T02:55:30.579Z,3.88
2023-05-05T02:58:00.983Z,3.67
2023-05-05T03:00:34.122Z,4.22
2023-05-05T03:03:01.512Z,3.67
2023-05-05T03:05:36.235Z,3.75
2023-05-05T03:08:04.995Z,4.10
2023-05-05T03:10:35.794Z,3.63
2023-05-05T03:13:04.050Z,3.35
2023-05-05T03:15:32.992Z,3.72
2023-05-05T03:18:01.268Z,3.95
2023-05-05T03:20:29.784Z,3.63
2023-05-05T03:22:57.174Z,3.85
2023-05-05T03:25:41.933Z,3.30
2023-05-05T03:28:09.274Z,3.47
2023-05-05T03:30:36.619Z,3.92
2023-05-05T03:33:06.884Z,6.07
2023-05-05T03:35:34.251Z,3.67
2023-05-05T03:38:01.631Z,3.65
2023-05-05T03:40:40.430Z,3.80
2023-05-05T03:43:11.521Z,3.60
2023-05-05T03:45:38.982Z,2.97
2023-05-05T03:48:07.123Z,3.25
2023-05-05T03:50:34.550Z,3.40
2023-05-05T03:53:01.923Z,3.70
2023-05-05T03:55:29.319Z,3.58
2023-05-05T03:57:56.705Z,3.58
2023-05-05T04:00:24.106Z,4.25
2023-05-05T04:02:51.556Z,4.10
2023-05-05T04:05:20.086Z,3.80
2023-05-05T04:07:47.396Z,3.80
2023-05-05T04:10:14.857Z,4.05
2023-05-05T04:12:42.211Z,3.78
2023-05-05T04:15:09.812Z,3.63
2023-05-05T04:17:37.228Z,4.05
2023-05-05T04:20:04.800Z,3.95
2023-05-05T04:22:32.627Z,4.63
2023-05-05T04:24:59.954Z,3.92
2023-05-05T04:27:29.180Z,3.53
2023-05-05T04:29:56.844Z,3.60
2023-05-05T04:32:24.257Z,3.40
2023-05-05T04:34:51.621Z,3.42
2023-05-05T04:37:18.987Z,4.00
2023-05-05T04:39:46.675Z,4.28
2023-05-05T04:42:14.024Z,3.20
2023-05-05T04:44:41.679Z,3.85
2023-05-05T04:47:09.062Z,3.97
2023-05-05T04:49:36.617Z,4.00
2023-05-05T04:52:04.005Z,3.33
2023-05-05T04:54:31.301Z,3.85
2023-05-05T04:56:59.414Z,3.13
2023-05-05T04:59:26.689Z,4.25
2023-05-05T05:01:54.067Z,3.70
2023-05-05T05:04:22.383Z,3.28
2023-05-05T05:06:49.832Z,3.95
2023-05-05T05:09:17.178Z,3.58
2023-05-05T05:11:44.526Z,3.65
2023-05-05T05:14:11.835Z,3.70
2023-05-05T05:16:39.248Z,3.28
2023-05-05T05:19:06.605Z,4.45
2023-05-05T05:21:33.911Z,4.13
2023-05-05T05:24:01.216Z,3.45
2023-05-05T05:26:28.572Z,4.13
2023-05-05T05:28:55.976Z,3.80
2023-05-05T05:31:23.311Z,3.50
2023-05-05T05:33:51.229Z,3.40
2023-05-05T05:36:18.562Z,4.10
2023-05-05T05:38:45.899Z,3.25
2023-05-05T05:41:13.238Z,3.75
2023-05-05T05:43:41.687Z,3.33
2023-05-05T05:46:09.394Z,3.47
2023-05-05T05:48:36.997Z,3.33
2023-05-05T05:51:04.368Z,3.55
2023-05-05T05:53:31.677Z,3.72
2023-05-05T05:55:58.987Z,3.33
2023-05-05T05:58:26.384Z,3.78
2023-05-05T06:00:53.686Z,3.97
2023-05-05T06:03:21.272Z,3.33
2023-05-05T06:05:48.715Z,3.20
2023-05-05T06:08:16.006Z,3.58
2023-05-05T06:10:43.362Z,3.40
2023-05-05T06:13:10.731Z,3.20
2023-05-05T06:15:38.140Z,3.28
2023-05-05T06:18:05.569Z,3.40
2023-05-05T06:20:33.135Z,3.40
2023-05-05T06:23:00.609Z,3.15
2023-05-05T06:25:28.022Z,3.25
2023-05-05T06:27:55.316Z,3.22
2023-05-05T06:30:22.689Z,3.50
2023-05-05T06:32:50.034Z,3.92
2023-05-05T06:35:17.383Z,3.78
2023-05-05T06:37:44.762Z,2.95
2023-05-05T06:40:12.314Z,3.40
2023-05-05T06:42:39.732Z,3.60
2023-05-05T06:45:07.330Z,3.20
2023-05-05T06:47:35.203Z,3.63
2023-05-05T06:50:02.562Z,3.35
2023-05-05T06:52:30.000Z,3.10
2023-05-05T06:54:57.272Z,3.05
2023-05-05T06:57:24.724Z,3.00
2023-05-05T06:59:52.135Z,3.30
2023-05-05T07:02:19.484Z,3.03
2023-05-05T07:04:46.791Z,2.97
2023-05-05T07:07:14.203Z,3.20
2023-05-05T07:09:41.842Z,2.97
2023-05-05T07:12:09.162Z,3.28
2023-05-05T07:14:36.462Z,3.10
2023-05-05T07:17:03.898Z,5.93
2023-05-05T07:19:31.412Z,4.53
2023-05-05T07:21:58.740Z,3.45
2023-05-05T07:24:26.032Z,5.05
2023-05-05T07:26:53.423Z,3.20
2023-05-05T07:29:20.789Z,2.75
2023-05-05T07:31:48.144Z,2.80
2023-05-05T07:34:15.670Z,3.15
2023-05-05T07:36:43.090Z,3.30
2023-05-05T07:39:10.442Z,3.10
2023-05-05T07:41:37.807Z,2.85
2023-05-05T07:44:05.279Z,2.72
2023-05-05T07:46:32.775Z,3.22
2023-05-05T07:49:00.101Z,2.42
2023-05-05T07:51:27.896Z,3.00
2023-05-05T07:53:56.667Z,2.92
2023-05-05T07:56:24.115Z,3.20
2023-05-05T07:58:51.427Z,2.92
2023-05-05T08:01:18.828Z,3.35
2023-05-05T08:03:46.434Z,3.10
2023-05-05T08:06:16.900Z,3.75
2023-05-05T08:08:44.229Z,3.72
2023-05-05T08:11:11.566Z,3.45
2023-05-05T08:13:39.390Z,3.33
2023-05-05T08:16:07.014Z,4.43
2023-05-05T08:18:37.629Z,4.13
2023-05-05T08:21:08.469Z,4.35
2023-05-05T08:23:36.062Z,3.85
2023-05-05T08:26:04.755Z,4.60
2023-05-05T08:28:32.256Z,4.00
2023-05-05T08:31:00.116Z,4.30
2023-05-05T08:33:27.487Z,4.07
2023-05-05T08:35:54.815Z,4.28
2023-05-05T08:38:22.300Z,9.43
2023-05-05T08:40:52.102Z,4.47
2023-05-05T08:43:24.122Z,4.50
2023-05-05T08:45:51.878Z,3.83
2023-05-05T08:48:22.645Z,4.13
2023-05-05T08:50:53.028Z,3.97
2023-05-05T08:53:26.891Z,4.28
2023-05-05T08:55:56.574Z,4.40
2023-05-05T08:58:24.170Z,4.43
2023-05-05T09:00:51.689Z,4.47
2023-05-05T09:03:19.268Z,4.40
2023-05-05T09:05:46.770Z,4.90
2023-05-05T09:08:14.456Z,4.45
2023-05-05T09:10:42.335Z,4.65
2023-05-05T09:13:09.970Z,4.85
2023-05-05T09:15:39.108Z,4.68
2023-05-05T09:18:09.589Z,4.63
2023-05-05T09:20:37.763Z,3.92
2023-05-05T09:23:09.438Z,4.05
2023-05-05T09:25:36.966Z,4.60
2023-05-05T09:28:11.625Z,4.90
2023-05-05T09:30:39.788Z,4.93
2023-05-05T09:33:07.443Z,4.57
2023-05-05T09:35:49.876Z,5.03
2023-05-05T09:38:17.285Z,5.10
2023-05-05T09:40:48.759Z,5.63
2023-05-05T09:43:16.585Z,4.57
2023-05-05T09:45:43.995Z,5.22
2023-05-05T09:48:25.122Z,5.28
2023-05-05T09:50:52.729Z,4.90
2023-05-05T09:53:20.205Z,5.00
2023-05-05T09:56:01.130Z,4.85
2023-05-05T09:58:29.246Z,5.38
2023-05-05T10:00:57.150Z,4.45
2023-05-05T10:03:25.056Z,5.25
2023-05-05T10:05:54.168Z,5.13
2023-05-05T10:08:22.314Z,5.70
2023-05-05T10:10:57.861Z,5.13
2023-05-05T10:13:25.534Z,4.85
2023-05-05T10:15:54.462Z,5.25
2023-05-05T10:18:25.785Z,4.82
2023-05-05T10:21:12.790Z,5.23
2023-05-05T10:23:42.906Z,4.90
2023-05-05T10:26:12.943Z,5.72
2023-05-05T10:29:06.724Z,4.93
2023-05-05T10:31:47.435Z,4.70
2023-05-05T10:34:33.477Z,4.88
2023-05-05T10:37:00.984Z,5.40
2023-05-05T10:39:28.509Z,5.47
2023-05-05T10:41:55.895Z,5.72
2023-05-05T10:44:23.963Z,5.78
2023-05-05T10:46:51.885Z,6.60
2023-05-05T10:49:37.696Z,6.13
2023-05-05T10:52:08.695Z,6.22
2023-05-05T10:54:37.817Z,6.65
2023-05-05T10:57:06.395Z,7.30
2023-05-05T10:59:39.459Z,6.70
2023-05-05T11:02:20.182Z,7.60
2023-05-05T11:05:07.023Z,7.28
2023-05-05T11:07:37.361Z,7.20
2023-05-05T11:10:09.167Z,8.10
2023-05-05T11:13:03.183Z,7.85
2023-05-05T11:15:30.680Z,6.85
2023-05-05T11:17:58.128Z,7.40
2023-05-05T11:20:39.756Z,7.50
2023-05-05T11:23:07.522Z,6.90
2023-05-05T11:25:39.223Z,6.50
2023-05-05T11:28:14.366Z,6.18
2023-05-05T11:30:58.062Z,6.88
2023-05-05T11:33:31.614Z,6.15
2023-05-05T11:36:00.043Z,6.55
2023-05-05T11:38:39.855Z,7.18
2023-05-05T11:41:16.230Z,6.32
2023-05-05T11:43:43.779Z,7.20
2023-05-05T11:46:14.578Z,9.38
2023-05-05T11:48:48.211Z,7.20
2023-05-05T11:51:16.458Z,7.28
2023-05-05T11:53:47.584Z,7.05
2023-05-05T11:56:25.089Z,7.13
2023-05-05T11:59:09.859Z,6.60
2023-05-05T12:01:43.747Z,7.07
2023-05-05T12:04:14.546Z,6.72
2023-05-05T12:06:42.387Z,6.78
2023-05-05T12:09:16.743Z,7.30
2023-05-05T12:11:50.248Z,7.07
2023-05-05T12:14:17.597Z,6.70
2023-05-05T12:16:57.719Z,8.00
2023-05-05T12:19:30.229Z,6.68
2023-05-05T12:21:57.828Z,7.80
2023-05-05T12:24:25.164Z,6.88
2023-05-05T12:26:52.493Z,7.90
2023-05-05T12:29:27.077Z,7.65
2023-05-05T12:31:54.538Z,8.07
2023-05-05T12:34:23.300Z,7.30
2023-05-05T12:36:50.711Z,8.18
2023-05-05T12:39:18.075Z,7.32
2023-05-05T12:41:45.623Z,7.68
2023-05-05T12:44:13.055Z,7.68
2023-05-05T12:46:47.345Z,7.63
2023-05-05T12:49:14.893Z,8.05
2023-05-05T12:51:54.140Z,7.63
2023-05-05T12:54:24.009Z,6.88
2023-05-05T12:56:51.498Z,7.60
2023-05-05T12:59:24.681Z,8.00
2023-05-05T13:01:53.174Z,7.93
2023-05-05T13:04:21.206Z,7.65
2023-05-05T13:06:49.783Z,8.02
2023-05-05T13:09:27.502Z,7.00
2023-05-05T13:11:55.751Z,7.55
2023-05-05T13:14:23.670Z,7.10
2023-05-05T13:16:51.096Z,7.20
2023-05-05T13:19:18.474Z,7.63
2023-05-05T13:21:45.858Z,7.60
2023-05-05T13:24:26.189Z,7.47
2023-05-05T13:26:56.752Z,7.18
2023-05-05T13:29:28.340Z,7.47
2023-05-05T13:31:57.967Z,7.30
2023-05-05T13:34:25.429Z,7.22
2023-05-05T13:36:52.770Z,7.47
2023-05-05T13:39:20.230Z,7.78
2023-05-05T13:41:47.655Z,6.97
2023-05-05T13:44:15.004Z,6.47
2023-05-05T13:46:43.156Z,7.53
2023-05-05T13:49:10.695Z,6.72
2023-05-05T13:51:39.231Z,6.93
2023-05-05T13:54:07.137Z,6.85
2023-05-05T13:56:34.892Z,7.25
2023-05-05T13:59:02.631Z,7.10
2023-05-05T14:01:30.436Z,5.53
2023-05-05T14:03:58.259Z,7.18
2023-05-05T14:06:26.248Z,7.43
2023-05-05T14:08:53.695Z,7.60
2023-05-05T14:11:21.572Z,7.45
2023-05-05T14:13:49.147Z,7.32
2023-05-05T14:16:16.658Z,7.13
2023-05-05T14:18:43.985Z,6.68
2023-05-05T14:21:11.450Z,6.65
2023-05-05T14:23:38.810Z,7.13
2023-05-05T14:26:06.150Z,7.15
2023-05-05T14:28:33.503Z,6.80
2023-05-05T14:31:00.985Z,7.10
2023-05-05T14:33:28.346Z,6.97
2023-05-05T14:35:56.252Z,6.72
2023-05-05T14:38:23.645Z,6.50
2023-05-05T14:40:51.024Z,7.28
2023-05-05T14:43:18.388Z,6.68
2023-05-05T14:45:45.860Z,6.88
2023-05-05T14:48:13.251Z,7.07
2023-05-05T14:50:42.431Z,6.28
2023-05-05T14:53:09.832Z,6.72
2023-05-05T14:55:37.414Z,6.57
2023-05-05T14:58:04.771Z,6.03
2023-05-05T15:00:32.458Z,6.55
2023-05-05T15:02:59.830Z,5.97
2023-05-05T15:05:27.280Z,6.40
2023-05-05T15:07:54.623Z,6.35
2023-05-05T15:10:22.211Z,6.65
2023-05-05T15:12:49.749Z,6.80
2023-05-05T15:15:17.105Z,6.05
2023-05-05T15:17:44.436Z,6.28
2023-05-05T15:20:12.056Z,6.47
2023-05-05T15:22:39.418Z,6.25
2023-05-05T15:25:11.080Z,6.78
2023-05-05T15:27:38.998Z,6.57
2023-05-05T15:30:06.821Z,6.70
2023-05-05T15:32:34.243Z,7.78
2023-05-05T15:35:01.624Z,7.43
2023-05-05T15:37:29.165Z,7.53
2023-05-05T15:39:57.196Z,8.55
2023-05-05T15:42:24.730Z,7.13
2023-05-05T15:44:52.444Z,7.75
2023-05-05T15:47:19.805Z,6.68
2023-05-05T15:49:47.105Z,7.18
2023-05-05T15:52:14.477Z,7.68
2023-05-05T15:54:41.919Z,8.15
2023-05-05T15:57:09.315Z,8.65
2023-05-05T15:59:36.818Z,8.60
2023-05-05T16:02:04.262Z,8.52
2023-05-05T16:04:32.152Z,7.70
2023-05-05T16:07:00.299Z,7.78
2023-05-05T16:09:27.960Z,8.57
2023-05-05T16:11:55.460Z,9.20
2023-05-05T16:14:22.924Z,8.55
2023-05-05T16:16:50.275Z,7.93
2023-05-05T16:19:18.314Z,10.38
2023-05-05T16:21:45.840Z,9.02
2023-05-05T16:24:16.689Z,10.48
2023-05-05T16:26:44.390Z,9.95
2023-05-05T16:29:12.022Z,10.32
2023-05-05T16:31:39.647Z,10.38
2023-05-05T16:34:07.342Z,10.13
2023-05-05T16:36:34.798Z,9.85
2023-05-05T16:39:02.535Z,9.68
2023-05-05T16:41:30.103Z,10.48
2023-05-05T16:43:57.541Z,10.90
2023-05-05T16:46:24.902Z,10.30
2023-05-05T16:48:52.278Z,9.25
2023-05-05T16:51:19.588Z,9.30
2023-05-05T16:53:48.970Z,10.00
2023-05-05T16:56:16.562Z,9.93
2023-05-05T16:58:43.919Z,10.18
2023-05-05T17:01:11.273Z,10.68
2023-05-05T17:03:39.494Z,11.07
2023-05-05T17:06:07.046Z,10.77
2023-05-05T17:08:34.391Z,10.65
2023-05-05T17:11:01.764Z,10.50
2023-05-05T17:13:29.526Z,11.60
2023-05-05T17:15:57.457Z,12.38
2023-05-05T17:18:26.088Z,12.18
2023-05-05T17:20:53.480Z,11.60
2023-05-05T17:23:21.545Z,11.70
2023-05-05T17:25:48.851Z,11.05
2023-05-05T17:28:17.524Z,11.05
2023-05-05T17:30:44.947Z,12.63
2023-05-05T17:33:12.453Z,11.90
2023-05-05T17:35:39.841Z,11.90
2023-05-05T17:38:07.208Z,11.98
2023-05-05T17:40:34.535Z,11.38
2023-05-05T17:43:01.926Z,12.65
2023-05-05T17:45:29.297Z,12.98
2023-05-05T17:47:56.679Z,11.93
2023-05-05T17:50:24.626Z,12.88
2023-05-05T17:52:52.201Z,12.20
2023-05-05T17:55:19.928Z,13.18
2023-05-05T17:57:47.620Z,13.10
2023-05-05T18:00:15.186Z,13.30
2023-05-05T18:02:43.025Z,13.95
2023-05-05T18:05:11.100Z,14.73
2023-05-05T18:07:38.940Z,14.18
2023-05-05T18:10:10.841Z,17.63
2023-05-05T18:12:38.204Z,16.85
2023-05-05T18:15:06.016Z,16.95
2023-05-05T18:17:33.377Z,18.35
2023-05-05T18:20:00.856Z,17.83
2023-05-05T18:22:28.191Z,19.08
2023-05-05T18:24:59.211Z,17.10
2023-05-05T18:27:27.178Z,17.00
2023-05-05T18:29:54.529Z,15.18
2023-05-05T18:32:22.111Z,18.42
2023-05-05T18:34:49.458Z,18.83
2023-05-05T18:37:16.839Z,16.67
2023-05-05T18:39:45.227Z,15.93
2023-05-05T18:42:13.247Z,17.25
2023-05-05T18:44:40.615Z,15.82
2023-05-05T18:47:08.348Z,16.00
2023-05-05T18:49:35.837Z,16.58
2023-05-05T18:52:03.288Z,15.35
2023-05-05T18:54:30.764Z,16.80
2023-05-05T18:56:59.438Z,16.00
2023-05-05T18:59:27.522Z,17.13
2023-05-05T19:01:54.914Z,18.02
2023-05-05T19:04:30.899Z,16.95
2023-05-05T19:06:59.315Z,17.30
2023-05-05T19:09:26.759Z,16.02
2023-05-05T19:11:54.252Z,16.38
2023-05-05T19:14:22.364Z,15.15
2023-05-05T19:16:49.786Z,20.55
2023-05-05T19:19:17.319Z,16.88
2023-05-05T19:21:44.745Z,15.00
2023-05-05T19:24:12.067Z,16.88
2023-05-05T19:26:39.541Z,17.25
2023-05-05T19:29:06.872Z,18.10
2023-05-05T19:31:34.275Z,16.90
2023-05-05T19:34:02.616Z,17.05
2023-05-05T19:36:31.836Z,17.75
2023-05-05T19:39:01.904Z,19.35
2023-05-05T19:41:29.875Z,18.83
2023-05-05T19:43:57.424Z,18.85
2023-05-05T19:46:26.724Z,17.05
2023-05-05T19:48:54.144Z,17.73
2023-05-05T19:51:21.589Z,17.35
2023-05-05T19:53:49.043Z,17.25
2023-05-05T19:56:17.301Z,15.90
2023-05-05T19:58:54.388Z,17.30
2023-05-05T20:01:21.827Z,17.55
2023-05-05T20:03:49.425Z,17.17
2023-05-05T20:06:17.047Z,19.38
2023-05-05T20:08:44.381Z,18.30
2023-05-05T20:11:11.741Z,16.98
2023-05-05T20:13:39.250Z,17.38
2023-05-05T20:16:06.960Z,19.48
2023-05-05T20:18:34.316Z,19.10
2023-05-05T20:21:02.797Z,19.73
2023-05-05T20:23:30.181Z,16.80
2023-05-05T20:25:57.489Z,20.42
2023-05-05T20:28:24.951Z,18.90
2023-05-05T20:30:52.333Z,19.55
2023-05-05T20:33:19.967Z,17.42
2023-05-05T20:35:48.187Z,18.33
2023-05-05T20:38:15.588Z,16.92
2023-05-05T20:40:42.925Z,18.55
2023-05-05T20:43:10.271Z,18.77
2023-05-05T20:45:37.575Z,18.42
2023-05-05T20:48:07.813Z,19.85
2023-05-05T20:50:37.591Z,20.50
2023-05-05T20:53:05.363Z,19.48
2023-05-05T20:55:32.834Z,20.23
2023-05-05T20:58:00.204Z,21.27
2023-05-05T21:00:27.637Z,20.30
2023-05-05T21:02:57.171Z,20.20
2023-05-05T21:05:25.044Z,20.80
2023-05-05T21:07:54.373Z,22.40
2023-05-05T21:10:21.949Z,22.23
2023-05-05T21:12:49.302Z,21.33
2023-05-05T21:15:16.974Z,23.75
2023-05-05T21:17:44.490Z,31.05
2023-05-05T21:20:12.465Z,34.00
2023-05-05T21:22:40.054Z,34.10
2023-05-05T21:25:14.793Z,23.15
2023-05-05T21:27:42.577Z,19.48
2023-05-05T21:30:11.149Z,20.30
2023-05-05T21:32:39.313Z,16.65
2023-05-05T21:35:07.452Z,15.77
2023-05-05T21:37:34.785Z,16.08
2023-05-05T21:40:02.105Z,15.10
2023-05-05T21:42:32.575Z,13.25
2023-05-05T21:45:00.022Z,13.63
2023-05-05T21:47:27.967Z,12.90
2023-05-05T21:49:55.372Z,14.38
2023-05-05T21:52:22.719Z,13.43
2023-05-05T21:54:50.097Z,13.45
2023-05-05T21:57:17.463Z,13.02
2023-05-05T21:59:44.795Z,13.20
2023-05-05T22:02:12.125Z,13.30
2023-05-05T22:04:39.452Z,12.63
2023-05-05T22:07:06.949Z,11.23
2023-05-05T22:09:34.292Z,13.23
2023-05-05T22:12:02.685Z,12.35
2023-05-05T22:14:30.084Z,11.80
2023-05-05T22:16:57.494Z,11.50
2023-05-05T22:19:24.880Z,11.98
2023-05-05T22:21:52.343Z,11.50
2023-05-05T22:24:19.661Z,12.00
2023-05-05T22:26:47.336Z,11.20
2023-05-05T22:29:14.701Z,12.07
2023-05-05T22:31:42.167Z,12.48
2023-05-05T22:34:09.555Z,12.32
2023-05-05T22:36:36.910Z,13.25
2023-05-05T22:39:04.250Z,14.15
2023-05-05T22:41:31.660Z,15.02
2023-05-05T22:43:58.982Z,15.50
2023-05-05T22:46:26.383Z,13.95
2023-05-05T22:48:54.345Z,15.60
2023-05-05T22:51:21.847Z,15.27
2023-05-05T22:53:49.188Z,15.40
2023-05-05T22:56:16.628Z,13.95
2023-05-05T22:58:44.046Z,13.30
2023-05-05T23:01:11.389Z,13.90
2023-05-05T23:03:38.786Z,13.27
2023-05-05T23:06:06.118Z,12.82
2023-05-05T23:08:33.487Z,14.73
2023-05-05T23:11:01.073Z,13.07
2023-05-05T23:13:28.405Z,14.82
2023-05-05T23:15:55.812Z,13.90
2023-05-05T23:18:23.157Z,14.15
2023-05-05T23:20:50.537Z,14.43
2023-05-05T23:23:17.957Z,13.70
2023-05-05T23:25:45.681Z,13.27
2023-05-05T23:28:13.030Z,13.57
2023-05-05T23:30:40.506Z,14.63
2023-05-05T23:33:09.135Z,13.75
2023-05-05T23:35:39.639Z,13.75
2023-05-05T23:38:07.138Z,12.73
2023-05-05T23:40:35.071Z,14.05
2023-05-05T23:43:02.435Z,12.35
2023-05-05T23:45:29.761Z,12.90
2023-05-05T23:47:57.172Z,12.65
2023-05-05T23:50:26.010Z,13.50
2023-05-05T23:52:53.353Z,12.80
2023-05-05T23:55:20.829Z,13.73
2023-05-05T23:57:48.149Z,13.82
